Terminal Aerodrome Forecast
Issued by NWS Twin Cities, MN

Home | Current Version | Previous Version | Text Only | Print | Product List | Glossary On
Versions: 1 2 3 4 5 6 7 8 9 10 11 12 13 14 15 16 17 18 19 20 21 22 23 24 25 26 27 28 29 30 31 32 33
000
FTUS43 KMPX 192300
TAFMSP
TAF
KMSP 192329Z 2000/2106 14006KT 6SM BR BKN013 OVC025
     FM200300 15006KT 5SM BR BKN008 OVC012
     FM200900 14005KT 3SM BR OVC006
     FM201500 16008KT 6SM BR BKN008 OVC012
     FM202000 16007KT P6SM OVC014
     FM210100 16007KT 6SM BR OVC007=

USA.gov is the U.S. government's official web portal to all federal, state and local government web resources and services.